Time;durP1;ratioP1;P1;durP2;ratioP2;P2;SDS_P1;SDS_P2;PMS_P1;PMS_P2;Temp;Humidity;BMP_temperature;BMP_pressure;BME280_temperature;BME280_humidity;BME280_pressure;Samples;Min_cycle;Max_cycle;Signal;HPM_P1;HPM_P2
2022/11/26 00:02:19;;;;;;;39.53;11.88;;;5.10;99.90;;;;;;4991858;28;20054;-41
2022/11/26 00:04:45;;;;;;;43.72;13.73;;;5.10;99.90;;;;;;4993769;28;20112;-40
2022/11/26 00:07:12;;;;;;;39.42;12.60;;;5.10;99.90;;;;;;4978078;28;20101;-40
2022/11/26 00:09:39;;;;;;;34.00;12.57;;;5.20;99.90;;;;;;4994537;28;20137;-41
2022/11/26 00:12:15;;;;;;;37.30;12.25;;;5.20;99.90;;;;;;4994039;28;20108;-40
2022/11/26 00:14:42;;;;;;;30.95;11.75;;;5.20;99.90;;;;;;4972188;28;20143;-41
2022/11/26 00:17:11;;;;;;;37.17;11.35;;;5.20;99.90;;;;;;4991762;28;20145;-37
2022/11/26 00:19:38;;;;;;;40.00;12.25;;;5.20;99.90;;;;;;4973448;28;20085;-40
2022/11/26 00:22:04;;;;;;;42.13;12.10;;;5.20;99.90;;;;;;4995247;28;20100;-41
2022/11/26 00:24:31;;;;;;;34.55;10.88;;;5.20;99.90;;;;;;4994320;28;20513;-41
2022/11/26 00:26:59;;;;;;;32.60;10.75;;;5.20;99.90;;;;;;4993693;28;20636;-40
2022/11/26 00:29:26;;;;;;;36.70;13.52;;;5.10;99.90;;;;;;4995203;28;20058;-41
2022/11/26 00:31:52;;;;;;;44.65;12.45;;;5.10;99.90;;;;;;4976049;28;20149;-40
2022/11/26 00:34:20;;;;;;;41.45;12.73;;;5.10;99.90;;;;;;4994015;28;20082;-41
2022/11/26 00:36:48;;;;;;;34.47;13.80;;;5.10;99.90;;;;;;4993676;28;20050;-40
2022/11/26 00:39:16;;;;;;;40.40;13.10;;;5.10;99.90;;;;;;4993641;28;20391;-40
2022/11/26 00:41:43;;;;;;;39.10;13.82;;;5.10;99.90;;;;;;4975922;28;20545;-41
2022/11/26 00:44:17;;;;;;;36.95;12.45;;;5.10;99.90;;;;;;4995324;28;20479;-41
2022/11/26 00:46:44;;;;;;;32.95;12.30;;;5.10;99.90;;;;;;4992775;28;20058;-40
2022/11/26 00:49:10;;;;;;;51.88;13.07;;;5.10;99.90;;;;;;4966173;28;20050;-41
2022/11/26 00:51:38;;;;;;;40.70;12.30;;;5.10;99.90;;;;;;4990515;28;20046;-40
2022/11/26 00:54:05;;;;;;;45.00;14.82;;;5.10;99.90;;;;;;4976580;28;20133;-41
2022/11/26 00:56:32;;;;;;;42.65;13.40;;;5.10;99.90;;;;;;4990234;28;20525;-41
2022/11/26 00:58:59;;;;;;;39.42;12.27;;;5.10;99.90;;;;;;4976363;28;20097;-40
2022/11/26 01:01:27;;;;;;;42.30;12.75;;;5.10;99.90;;;;;;4976614;28;20614;-41
2022/11/26 01:03:54;;;;;;;31.33;13.43;;;5.10;99.90;;;;;;4993909;28;20058;-41
2022/11/26 01:06:23;;;;;;;40.80;12.48;;;5.10;99.90;;;;;;4993157;28;20085;-40
2022/11/26 01:08:52;;;;;;;38.00;13.48;;;5.10;99.90;;;;;;4974071;28;20070;-39
2022/11/26 01:11:19;;;;;;;38.20;12.52;;;5.10;99.90;;;;;;4989348;28;20050;-40
2022/11/26 01:13:47;;;;;;;34.08;13.18;;;5.10;99.90;;;;;;4969500;28;20082;-39
2022/11/26 01:16:18;;;;;;;41.10;13.95;;;5.00;99.90;;;;;;4972982;28;20509;-40
2022/11/26 01:18:45;;;;;;;44.13;13.20;;;5.00;99.90;;;;;;4969640;28;20130;-40
2022/11/26 01:21:13;;;;;;;32.83;11.98;;;5.00;99.90;;;;;;4993637;28;20518;-41
2022/11/26 01:23:40;;;;;;;42.47;14.45;;;5.00;99.90;;;;;;4992832;28;20427;-39
2022/11/26 01:26:13;;;;;;;39.72;14.35;;;5.00;99.90;;;;;;4991788;28;20133;-40
2022/11/26 01:28:40;;;;;;;38.45;13.23;;;5.00;99.90;;;;;;4993440;28;20153;-40
2022/11/26 01:31:11;;;;;;;31.02;10.00;;;5.00;99.90;;;;;;4973850;28;20505;-41
2022/11/26 01:33:38;;;;;;;31.15;12.25;;;5.00;99.90;;;;;;4993075;28;20082;-41
2022/11/26 01:36:09;;;;;;;43.63;12.13;;;5.00;99.90;;;;;;4992304;28;20117;-41
2022/11/26 01:38:36;;;;;;;37.50;12.60;;;4.90;99.90;;;;;;4991442;28;20058;-41
2022/11/26 01:41:11;;;;;;;31.92;12.70;;;4.90;99.90;;;;;;4992424;28;20372;-41
2022/11/26 01:43:40;;;;;;;30.50;11.45;;;4.90;99.90;;;;;;4991591;28;20430;-37
2022/11/26 01:46:12;;;;;;;40.17;13.13;;;4.90;99.90;;;;;;4990459;28;20104;-39
2022/11/26 01:48:38;;;;;;;37.20;11.68;;;4.80;99.90;;;;;;4982132;28;20046;-40
2022/11/26 01:51:06;;;;;;;38.78;13.38;;;4.80;99.90;;;;;;4987879;28;20133;-40
2022/11/26 01:53:43;;;;;;;36.78;11.80;;;4.80;99.90;;;;;;4974318;28;20090;-39
2022/11/26 01:56:18;;;;;;;35.17;13.38;;;4.80;99.90;;;;;;4989362;28;20451;-40
2022/11/26 01:58:46;;;;;;;37.78;12.93;;;4.80;99.90;;;;;;4991958;28;20078;-40
2022/11/26 02:01:13;;;;;;;31.75;12.65;;;4.70;99.90;;;;;;4991318;28;20050;-39
2022/11/26 02:03:43;;;;;;;32.20;12.13;;;4.80;99.90;;;;;;4974647;28;20085;-40
2022/11/26 02:06:11;;;;;;;38.75;13.20;;;4.80;99.90;;;;;;4990379;28;20541;-40
2022/11/26 02:08:38;;;;;;;30.92;11.23;;;4.80;99.90;;;;;;4992404;28;20058;-40
2022/11/26 02:11:17;;;;;;;42.22;13.68;;;4.80;99.90;;;;;;4990353;28;20104;-40
2022/11/26 02:13:46;;;;;;;33.88;10.98;;;4.80;99.90;;;;;;4984206;28;20058;-41
2022/11/26 02:16:18;;;;;;;40.97;12.68;;;4.80;99.90;;;;;;4991142;28;20092;-40
2022/11/26 02:19:00;;;;;;;35.60;12.38;;;4.70;99.90;;;;;;4982797;28;20050;-40
2022/11/26 02:21:27;;;;;;;32.25;11.02;;;4.80;99.90;;;;;;4991540;28;20049;-40
2022/11/26 02:24:19;;;;;;;31.70;10.93;;;4.70;99.90;;;;;;4984776;28;20518;-40
2022/11/26 02:27:29;;;;;;;40.55;11.48;;;4.70;99.90;;;;;;4974902;28;20061;-40
2022/11/26 02:30:03;;;;;;;39.58;11.50;;;4.70;99.90;;;;;;4992627;28;20097;-41
2022/11/26 02:32:32;;;;;;;38.60;12.07;;;4.70;99.90;;;;;;4989790;28;20380;-37
2022/11/26 02:35:00;;;;;;;36.47;11.73;;;4.70;99.90;;;;;;4990330;28;20086;-41
2022/11/26 02:37:29;;;;;;;43.45;12.85;;;4.70;99.90;;;;;;4991026;28;20058;-41
2022/11/26 02:39:56;;;;;;;29.67;10.80;;;4.80;99.90;;;;;;4992392;28;20050;-40
2022/11/26 02:42:25;;;;;;;30.60;11.38;;;4.70;99.90;;;;;;4991245;28;20561;-40
2022/11/26 02:44:52;;;;;;;35.95;11.32;;;4.70;99.90;;;;;;4992454;28;20081;-40
2022/11/26 02:47:20;;;;;;;37.35;11.38;;;4.70;99.90;;;;;;4991407;28;20394;-39
2022/11/26 02:49:47;;;;;;;29.55;10.48;;;4.70;99.90;;;;;;4994131;28;20141;-40
2022/11/26 02:52:14;;;;;;;36.97;11.20;;;4.70;99.90;;;;;;4996794;28;20112;-40
2022/11/26 02:54:40;;;;;;;31.55;10.27;;;4.60;99.90;;;;;;4995006;28;20085;-39
2022/11/26 02:57:09;;;;;;;34.42;10.73;;;4.60;99.90;;;;;;4977650;28;20137;-40
2022/11/26 02:59:35;;;;;;;40.45;11.30;;;4.60;99.90;;;;;;4995676;28;20050;-40
2022/11/26 03:02:05;;;;;;;39.08;11.45;;;4.60;99.90;;;;;;4996167;28;20101;-40
2022/11/26 03:04:35;;;;;;;23.70;9.73;;;4.60;99.90;;;;;;4995383;28;20094;-40
2022/11/26 03:07:03;;;;;;;35.40;10.45;;;4.60;99.90;;;;;;4995049;28;20560;-40
2022/11/26 03:09:39;;;;;;;29.02;10.10;;;4.60;99.90;;;;;;4976903;28;20050;-40
2022/11/26 03:12:06;;;;;;;34.45;9.68;;;4.50;99.90;;;;;;4993855;28;20081;-40
2022/11/26 03:14:33;;;;;;;35.58;10.60;;;4.50;99.90;;;;;;4976668;28;20521;-40
2022/11/26 03:17:00;;;;;;;38.75;11.77;;;4.40;99.90;;;;;;4996378;28;20104;-40
2022/11/26 03:19:26;;;;;;;24.65;9.55;;;4.50;99.90;;;;;;4995328;28;20130;-39
2022/11/26 03:21:55;;;;;;;32.83;10.60;;;4.40;99.90;;;;;;4978907;28;20568;-41
2022/11/26 03:24:21;;;;;;;31.75;10.30;;;4.50;99.90;;;;;;4977261;28;20089;-40
2022/11/26 03:26:48;;;;;;;46.83;12.45;;;4.40;99.90;;;;;;4995519;28;20086;-40
2022/11/26 03:29:15;;;;;;;34.40;11.30;;;4.40;99.90;;;;;;4962492;28;20116;-40
2022/11/26 03:31:42;;;;;;;30.23;11.88;;;4.40;99.90;;;;;;4993565;28;20054;-40
2022/11/26 03:34:08;;;;;;;34.25;11.02;;;4.40;99.90;;;;;;4994448;28;20085;-39
2022/11/26 03:36:35;;;;;;;40.78;10.85;;;4.40;99.90;;;;;;4978827;28;20086;-39
2022/11/26 03:39:03;;;;;;;30.65;10.00;;;4.40;99.90;;;;;;4976339;28;20572;-39
2022/11/26 03:41:30;;;;;;;37.75;11.63;;;4.40;99.90;;;;;;4994832;28;20133;-39
2022/11/26 03:43:57;;;;;;;39.67;10.95;;;4.30;99.90;;;;;;4995296;28;20085;-40
2022/11/26 03:46:24;;;;;;;43.95;12.43;;;4.30;99.90;;;;;;4993916;28;20088;-39
2022/11/26 03:48:50;;;;;;;35.47;11.43;;;4.30;99.90;;;;;;4995156;28;20089;-39
2022/11/26 03:51:17;;;;;;;32.20;10.23;;;4.30;99.90;;;;;;4995306;28;20101;-40
2022/11/26 03:53:44;;;;;;;37.80;10.82;;;4.30;99.90;;;;;;4978579;28;20560;-40
2022/11/26 03:56:12;;;;;;;37.83;12.73;;;4.30;99.90;;;;;;4993345;28;20082;-40
2022/11/26 03:58:39;;;;;;;36.03;11.32;;;4.30;99.90;;;;;;4995145;28;20078;-40
2022/11/26 04:01:08;;;;;;;34.00;11.20;;;4.30;99.90;;;;;;4993845;28;20473;-41
2022/11/26 04:03:34;;;;;;;38.55;10.88;;;4.30;99.90;;;;;;4994888;28;20097;-41
2022/11/26 04:06:01;;;;;;;35.55;12.02;;;4.30;99.90;;;;;;4994442;28;20077;-40
2022/11/26 04:08:28;;;;;;;40.67;11.10;;;4.30;99.90;;;;;;4977503;28;20104;-41
2022/11/26 04:10:55;;;;;;;38.30;11.10;;;4.30;99.90;;;;;;4989471;28;20121;-41
2022/11/26 04:13:23;;;;;;;34.60;11.13;;;4.30;99.90;;;;;;4990774;28;20054;-41
2022/11/26 04:15:49;;;;;;;31.17;10.38;;;4.30;99.90;;;;;;4976206;28;20141;-40
2022/11/26 04:18:16;;;;;;;35.05;11.18;;;4.30;99.90;;;;;;4994123;28;20076;-42
2022/11/26 04:20:43;;;;;;;46.58;13.27;;;4.30;99.90;;;;;;4994342;28;20128;-40
2022/11/26 04:23:10;;;;;;;46.20;12.25;;;4.30;99.90;;;;;;4993790;28;20513;-41
2022/11/26 04:25:37;;;;;;;34.03;11.60;;;4.30;99.90;;;;;;4994251;28;20054;-42
2022/11/26 04:28:04;;;;;;;32.30;11.40;;;4.30;99.90;;;;;;4994451;28;20093;-40
2022/11/26 04:30:32;;;;;;;31.60;11.77;;;4.30;99.90;;;;;;4975843;28;20062;-41
2022/11/26 04:32:59;;;;;;;41.80;12.68;;;4.20;99.90;;;;;;4994073;28;20105;-41
2022/11/26 04:35:25;;;;;;;30.08;12.52;;;4.30;99.90;;;;;;4976289;28;20495;-41
2022/11/26 04:37:52;;;;;;;34.55;14.07;;;4.30;99.90;;;;;;4994498;28;20058;-40
2022/11/26 04:40:19;;;;;;;42.05;16.75;;;4.30;99.90;;;;;;4976041;28;20088;-41
2022/11/26 04:42:46;;;;;;;44.15;15.70;;;4.30;99.90;;;;;;4977023;28;20057;-42
2022/11/26 04:45:13;;;;;;;42.33;13.85;;;4.30;99.90;;;;;;4992598;28;20050;-42
2022/11/26 04:47:41;;;;;;;38.20;13.20;;;4.30;99.90;;;;;;4975052;28;20081;-42
2022/11/26 04:50:09;;;;;;;28.65;12.43;;;4.30;99.90;;;;;;4993986;28;20089;-40
2022/11/26 04:52:35;;;;;;;34.58;12.27;;;4.30;99.90;;;;;;4975861;28;20058;-41
2022/11/26 04:55:02;;;;;;;29.55;12.57;;;4.20;99.90;;;;;;4993412;28;20133;-42
2022/11/26 04:57:29;;;;;;;28.08;12.65;;;4.20;99.90;;;;;;4993994;28;20168;-39
2022/11/26 04:59:56;;;;;;;39.33;13.98;;;4.20;99.90;;;;;;4976574;28;20077;-40
2022/11/26 05:02:22;;;;;;;39.63;14.25;;;4.20;99.90;;;;;;4994022;28;20058;-41
2022/11/26 05:04:50;;;;;;;35.42;13.90;;;4.20;99.90;;;;;;4992998;28;20137;-41
2022/11/26 05:07:17;;;;;;;35.65;14.20;;;4.10;99.90;;;;;;4994210;28;20110;-41
2022/11/26 05:09:44;;;;;;;43.70;15.15;;;4.10;99.90;;;;;;4976094;28;20078;-40
2022/11/26 05:12:11;;;;;;;28.50;12.23;;;4.10;99.90;;;;;;4976136;28;20088;-42
2022/11/26 05:14:38;;;;;;;37.15;14.18;;;4.10;99.90;;;;;;4975659;28;20074;-40
2022/11/26 05:17:05;;;;;;;28.40;12.07;;;4.10;99.90;;;;;;4992779;28;20093;-42
2022/11/26 05:19:32;;;;;;;28.75;11.68;;;4.10;99.90;;;;;;4976594;28;20530;-42
2022/11/26 05:22:01;;;;;;;32.28;15.98;;;4.00;99.90;;;;;;4984407;28;20054;-41
2022/11/26 05:24:27;;;;;;;32.80;13.32;;;4.10;99.90;;;;;;4994120;28;20136;-39
2022/11/26 05:26:54;;;;;;;32.65;13.50;;;4.10;99.90;;;;;;4992706;28;20137;-40
2022/11/26 05:29:21;;;;;;;46.05;17.08;;;4.00;99.90;;;;;;4992258;28;20137;-39
2022/11/26 05:31:48;;;;;;;33.95;15.68;;;4.10;99.90;;;;;;4992006;28;20089;-42
2022/11/26 05:34:14;;;;;;;26.08;14.23;;;4.00;99.90;;;;;;4983128;28;20132;-44
2022/11/26 05:36:41;;;;;;;39.65;15.02;;;4.10;99.90;;;;;;4991142;28;20054;-41
2022/11/26 05:39:09;;;;;;;40.78;15.40;;;4.00;99.90;;;;;;4973477;28;20129;-41
2022/11/26 05:41:36;;;;;;;37.20;15.90;;;4.00;99.90;;;;;;4989554;28;20060;-41
2022/11/26 05:44:03;;;;;;;31.77;13.25;;;4.00;99.90;;;;;;4992374;28;20090;-41
2022/11/26 05:46:30;;;;;;;34.65;14.23;;;4.00;99.90;;;;;;4991949;28;20375;-42
2022/11/26 05:48:56;;;;;;;42.70;16.73;;;4.00;99.90;;;;;;4992418;28;20130;-41
2022/11/26 05:51:23;;;;;;;35.78;15.35;;;4.00;99.90;;;;;;4993131;28;20133;-41
2022/11/26 05:53:50;;;;;;;49.78;18.45;;;4.00;99.90;;;;;;4992661;28;20046;-41
2022/11/26 05:56:18;;;;;;;45.75;17.88;;;4.00;99.90;;;;;;4992049;28;20501;-41
2022/11/26 05:58:45;;;;;;;42.45;17.45;;;4.00;99.90;;;;;;4975852;28;20061;-40
2022/11/26 06:01:11;;;;;;;34.38;16.08;;;4.00;99.90;;;;;;4991588;28;20109;-41
2022/11/26 06:03:38;;;;;;;41.22;16.35;;;4.00;99.90;;;;;;4974659;28;20462;-42
2022/11/26 06:06:06;;;;;;;33.17;14.70;;;4.10;99.90;;;;;;4991374;28;20058;-41
2022/11/26 06:08:32;;;;;;;33.53;14.65;;;4.00;99.90;;;;;;4989280;28;20086;-41
2022/11/26 06:10:59;;;;;;;42.60;16.50;;;4.00;99.90;;;;;;4988898;28;20043;-41
2022/11/26 06:13:27;;;;;;;54.80;16.40;;;4.00;99.90;;;;;;4983089;28;20082;-41
2022/11/26 06:15:54;;;;;;;46.40;16.60;;;4.00;99.90;;;;;;4973972;28;20558;-41
2022/11/26 06:18:21;;;;;;;42.70;17.30;;;4.00;99.90;;;;;;4975038;28;20082;-41
2022/11/26 06:20:48;;;;;;;44.80;17.00;;;4.00;99.90;;;;;;4966630;28;20125;-41
2022/11/26 06:23:15;;;;;;;44.42;16.73;;;4.00;99.90;;;;;;4988306;28;20085;-42
2022/11/26 06:25:42;;;;;;;55.95;19.05;;;4.00;99.90;;;;;;4973297;28;20054;-41
2022/11/26 06:28:08;;;;;;;43.75;16.98;;;3.90;99.90;;;;;;4992342;28;20089;-42
2022/11/26 06:30:36;;;;;;;40.35;15.38;;;4.00;99.90;;;;;;4972984;28;20137;-41
2022/11/26 06:33:03;;;;;;;30.23;13.73;;;3.90;99.90;;;;;;4991492;28;20050;-41
2022/11/26 06:35:30;;;;;;;42.65;17.58;;;4.00;99.90;;;;;;4970323;28;20086;-41
2022/11/26 06:37:57;;;;;;;41.30;15.73;;;3.90;99.90;;;;;;4959246;28;20082;-41
2022/11/26 06:40:23;;;;;;;41.03;17.35;;;3.90;99.90;;;;;;4955275;28;20115;-42
2022/11/26 06:42:50;;;;;;;37.50;16.33;;;3.90;99.90;;;;;;4971889;28;20456;-40
2022/11/26 06:45:17;;;;;;;39.50;17.38;;;3.90;99.90;;;;;;4955391;28;20149;-41
2022/11/26 06:47:47;;;;;;;62.05;19.98;;;3.90;99.90;;;;;;4971611;28;20094;-41
2022/11/26 06:50:14;;;;;;;38.85;16.30;;;3.90;99.90;;;;;;4971735;28;20168;-41
2022/11/26 06:52:40;;;;;;;46.17;17.02;;;3.90;99.90;;;;;;4972537;28;20089;-40
2022/11/26 06:55:08;;;;;;;53.28;19.98;;;3.90;99.90;;;;;;4970320;28;20054;-41
2022/11/26 06:57:35;;;;;;;44.55;16.42;;;3.90;99.90;;;;;;4965457;28;20134;-41
2022/11/26 07:00:01;;;;;;;50.53;18.05;;;3.90;99.90;;;;;;4971121;28;20055;-41
2022/11/26 07:02:28;;;;;;;36.67;15.45;;;3.90;99.90;;;;;;4970155;28;20076;-41
2022/11/26 07:04:56;;;;;;;34.53;16.08;;;3.90;99.90;;;;;;4966880;28;20133;-41
2022/11/26 07:07:23;;;;;;;42.67;17.20;;;3.90;99.90;;;;;;4963947;28;20051;-42
2022/11/26 07:09:50;;;;;;;46.47;17.90;;;3.90;99.90;;;;;;4966546;28;20043;-41
2022/11/26 07:12:17;;;;;;;42.53;17.42;;;3.90;99.90;;;;;;4954338;28;20055;-40
2022/11/26 07:14:44;;;;;;;40.75;15.30;;;3.90;99.90;;;;;;4971502;28;20127;-40
2022/11/26 07:17:10;;;;;;;42.38;18.45;;;3.90;99.90;;;;;;4972630;28;20384;-40
2022/11/26 07:19:37;;;;;;;43.53;19.50;;;3.90;99.90;;;;;;4973304;28;20082;-41
2022/11/26 07:22:05;;;;;;;55.58;21.38;;;3.90;99.90;;;;;;4971575;28;20089;-41
2022/11/26 07:24:32;;;;;;;52.35;20.48;;;3.90;99.90;;;;;;4955436;28;20059;-41
2022/11/26 07:26:59;;;;;;;48.63;20.38;;;3.90;99.90;;;;;;4967848;28;20094;-39
2022/11/26 07:29:25;;;;;;;53.72;18.55;;;3.90;99.90;;;;;;4951988;28;20141;-40
2022/11/26 07:31:52;;;;;;;50.67;21.13;;;3.90;99.90;;;;;;4952636;28;20134;-40
2022/11/26 07:34:19;;;;;;;43.97;20.30;;;3.90;99.90;;;;;;4969335;28;20142;-40
2022/11/26 07:36:46;;;;;;;50.10;20.42;;;3.90;99.90;;;;;;4975598;28;20058;-41
2022/11/26 07:39:14;;;;;;;60.53;22.58;;;3.90;99.90;;;;;;4972164;28;20046;-39
2022/11/26 07:41:42;;;;;;;52.00;20.48;;;3.90;99.90;;;;;;4973556;28;20135;-40
2022/11/26 07:44:11;;;;;;;58.47;20.60;;;3.90;99.90;;;;;;4957786;28;20082;-41
2022/11/26 07:46:38;;;;;;;72.32;26.95;;;3.90;99.90;;;;;;4976287;28;20047;-39
2022/11/26 07:49:05;;;;;;;64.30;25.17;;;4.00;99.90;;;;;;4947921;29;20138;-41
2022/11/26 07:51:32;;;;;;;59.45;27.52;;;4.00;99.90;;;;;;4941589;28;20460;-41
2022/11/26 07:54:00;;;;;;;75.38;30.23;;;4.00;99.90;;;;;;4974341;28;20092;-40
2022/11/26 07:56:28;;;;;;;79.75;35.97;;;4.00;99.90;;;;;;4956555;28;20574;-40
2022/11/26 07:58:55;;;;;;;69.97;28.33;;;4.10;99.90;;;;;;4975508;28;20114;-40
2022/11/26 08:01:23;;;;;;;71.78;26.67;;;4.10;99.90;;;;;;4973276;28;20047;-40
2022/11/26 08:03:50;;;;;;;66.88;30.48;;;4.10;99.90;;;;;;4975208;28;20146;-39
2022/11/26 08:06:18;;;;;;;66.47;29.77;;;4.20;99.90;;;;;;4958652;28;20050;-41
2022/11/26 08:08:44;;;;;;;66.10;30.63;;;4.20;99.90;;;;;;4974500;28;20050;-39
2022/11/26 08:11:13;;;;;;;61.35;26.25;;;4.30;99.90;;;;;;4958351;28;20090;-40
2022/11/26 08:13:41;;;;;;;60.92;25.42;;;4.30;99.90;;;;;;4965282;28;20134;-40
2022/11/26 08:16:07;;;;;;;63.95;26.95;;;4.30;99.90;;;;;;4975463;28;20554;-39
2022/11/26 08:18:34;;;;;;;67.03;26.23;;;4.40;99.90;;;;;;4956911;28;20089;-40
2022/11/26 08:21:01;;;;;;;61.03;25.13;;;4.40;99.90;;;;;;4972147;28;20471;-40
2022/11/26 08:23:29;;;;;;;71.10;28.10;;;4.50;99.90;;;;;;4971591;28;20082;-38
2022/11/26 08:25:55;;;;;;;67.28;27.20;;;4.50;99.90;;;;;;4958371;28;20087;-40
2022/11/26 08:28:22;;;;;;;57.85;26.50;;;4.50;99.90;;;;;;4974620;28;20082;-40
2022/11/26 08:30:50;;;;;;;59.60;22.65;;;4.60;99.90;;;;;;4956811;28;20141;-40
2022/11/26 08:33:17;;;;;;;67.63;21.00;;;4.60;99.90;;;;;;4994540;28;20523;-40
2022/11/26 08:35:44;;;;;;;56.80;20.92;;;4.70;99.90;;;;;;4975596;28;20086;-39
2022/11/26 08:38:11;;;;;;;55.65;20.65;;;4.70;99.90;;;;;;4975152;28;20114;-39
2022/11/26 08:40:37;;;;;;;51.10;20.45;;;4.70;99.90;;;;;;4955202;28;20100;-39
2022/11/26 08:43:04;;;;;;;58.67;21.13;;;4.80;99.90;;;;;;4949467;29;20043;-39
2022/11/26 08:45:31;;;;;;;55.40;21.20;;;4.80;99.90;;;;;;4972042;28;20137;-41
2022/11/26 08:47:59;;;;;;;53.92;19.75;;;4.90;99.90;;;;;;4968681;28;20074;-39
2022/11/26 08:50:26;;;;;;;52.72;20.85;;;4.90;99.90;;;;;;4973437;28;20137;-39
2022/11/26 08:52:53;;;;;;;57.80;20.80;;;5.00;99.90;;;;;;4965559;28;20058;-39
2022/11/26 08:55:19;;;;;;;55.92;19.95;;;5.00;99.90;;;;;;4971656;28;20130;-40
2022/11/26 08:57:46;;;;;;;58.03;21.30;;;5.10;99.90;;;;;;4957826;28;20093;-41
2022/11/26 09:00:14;;;;;;;53.38;20.98;;;5.10;99.90;;;;;;4974365;28;20491;-41
2022/11/26 09:02:41;;;;;;;53.65;20.73;;;5.20;99.90;;;;;;4947508;28;20129;-40
2022/11/26 09:05:09;;;;;;;48.88;21.08;;;5.20;99.90;;;;;;4965879;28;20511;-40
2022/11/26 09:07:36;;;;;;;49.83;20.67;;;5.30;99.90;;;;;;4969513;28;20464;-41
2022/11/26 09:10:03;;;;;;;63.78;22.20;;;5.30;99.90;;;;;;4955067;28;20053;-40
2022/11/26 09:12:30;;;;;;;48.28;21.40;;;5.30;99.90;;;;;;4953857;28;20058;-40
2022/11/26 09:14:57;;;;;;;59.00;22.00;;;5.40;99.90;;;;;;4963386;28;20086;-40
2022/11/26 09:17:24;;;;;;;52.25;20.20;;;5.40;99.90;;;;;;4967281;28;20082;-41
2022/11/26 09:19:50;;;;;;;47.80;19.75;;;5.50;99.90;;;;;;4970647;28;20090;-41
2022/11/26 09:22:19;;;;;;;53.20;20.70;;;5.50;99.90;;;;;;4954154;28;20402;-41
2022/11/26 09:24:45;;;;;;;57.22;20.33;;;5.50;99.90;;;;;;4954595;28;20086;-40
2022/11/26 09:27:12;;;;;;;56.60;20.58;;;5.50;99.90;;;;;;4972496;28;20094;-40
2022/11/26 09:29:39;;;;;;;51.10;20.35;;;5.70;99.90;;;;;;4970941;28;20082;-41
2022/11/26 09:32:08;;;;;;;62.00;20.92;;;5.70;99.90;;;;;;4971356;28;20042;-39
2022/11/26 09:34:34;;;;;;;47.08;18.48;;;5.70;99.90;;;;;;4979732;28;20058;-40
2022/11/26 09:37:01;;;;;;;60.85;23.13;;;5.80;99.90;;;;;;4971953;28;20081;-40
2022/11/26 09:39:29;;;;;;;47.00;21.27;;;5.80;99.90;;;;;;4990133;28;20077;-40
2022/11/26 09:42:00;;;;;;;63.35;21.58;;;5.90;99.90;;;;;;4975835;28;20089;-41
2022/11/26 09:44:33;;;;;;;50.50;21.17;;;5.90;99.90;;;;;;4991846;28;20046;-41
2022/11/26 09:47:05;;;;;;;57.75;21.40;;;6.00;99.90;;;;;;4974453;28;20080;-41
2022/11/26 09:49:33;;;;;;;;;;;6.10;99.90;;;;;;4991752;28;20414;-37
2022/11/26 09:52:00;;;;;;;56.60;21.80;;;6.10;99.90;;;;;;4974297;28;19922;-39
2022/11/26 09:54:28;;;;;;;51.90;21.30;;;6.10;99.90;;;;;;4989161;28;20073;-38
2022/11/26 09:56:59;;;;;;;60.03;23.10;;;6.20;99.90;;;;;;4988032;28;20082;-39
2022/11/26 09:59:25;;;;;;;58.47;23.25;;;6.20;99.90;;;;;;4971855;28;20077;-39
2022/11/26 10:01:52;;;;;;;51.03;23.88;;;6.30;99.90;;;;;;4990003;28;20136;-41
2022/11/26 10:04:21;;;;;;;52.38;23.08;;;6.30;99.90;;;;;;4988044;28;20173;-40
2022/11/26 10:06:51;;;;;;;58.05;25.15;;;6.40;99.90;;;;;;4970152;28;20497;-39
2022/11/26 10:09:29;;;;;;;59.95;24.25;;;6.40;99.90;;;;;;4973107;28;20461;-41
2022/11/26 10:11:59;;;;;;;62.30;24.02;;;6.50;99.90;;;;;;4990053;28;20081;-41
2022/11/26 10:14:45;;;;;;;56.55;24.52;;;6.60;99.90;;;;;;4973894;28;20086;-40
2022/11/26 10:17:20;;;;;;;61.85;25.23;;;6.60;99.90;;;;;;4984023;28;20078;-40
2022/11/26 10:19:52;;;;;;;57.63;24.48;;;6.60;99.90;;;;;;4987625;28;20470;-39
2022/11/26 10:22:21;;;;;;;66.20;25.42;;;6.60;99.90;;;;;;4971573;28;20093;-38
2022/11/26 10:24:49;;;;;;;69.30;26.73;;;6.70;99.90;;;;;;4987789;28;20047;-40
2022/11/26 10:27:25;;;;;;;57.67;24.45;;;6.70;99.90;;;;;;4973633;28;20054;-40
2022/11/26 10:29:54;;;;;;;63.05;26.08;;;6.80;99.90;;;;;;4989760;28;20073;-39
2022/11/26 10:32:24;;;;;;;49.83;24.45;;;6.80;99.90;;;;;;4989930;28;20085;-40
2022/11/26 10:34:52;;;;;;;62.28;26.67;;;6.80;99.90;;;;;;4990508;28;20050;-38
2022/11/26 10:37:19;;;;;;;63.30;26.00;;;6.90;99.90;;;;;;4990528;28;20502;-40
2022/11/26 10:39:46;;;;;;;58.95;26.77;;;6.90;99.90;;;;;;4972821;28;20176;-40
2022/11/26 10:42:16;;;;;;;55.53;25.58;;;7.00;99.90;;;;;;4986357;28;20128;-40
2022/11/26 10:44:43;;;;;;;60.80;26.67;;;7.00;99.90;;;;;;4975002;28;20050;-40
2022/11/26 10:47:27;;;;;;;70.45;28.88;;;7.10;99.90;;;;;;4989663;28;21472;-40
2022/11/26 10:49:54;;;;;;;63.30;27.50;;;7.10;99.90;;;;;;4989239;28;20474;-40
2022/11/26 10:52:23;;;;;;;62.60;27.42;;;7.20;99.90;;;;;;4972328;28;20054;-38
2022/11/26 10:55:09;;;;;;;70.57;27.67;;;7.20;99.90;;;;;;4988407;28;20125;-39
2022/11/26 10:57:37;;;;;;;65.13;26.63;;;7.30;99.90;;;;;;4990176;28;20474;-40
2022/11/26 11:00:05;;;;;;;56.67;26.13;;;7.30;99.90;;;;;;4989625;28;20569;-40
2022/11/26 11:02:33;;;;;;;62.85;27.23;;;7.30;99.90;;;;;;4986925;28;20065;-40
2022/11/26 11:05:02;;;;;;;69.25;28.40;;;7.30;99.90;;;;;;4986330;28;20976;-39
2022/11/26 11:07:31;;;;;;;62.40;28.08;;;7.40;99.90;;;;;;4984899;28;20042;-37
2022/11/26 11:10:02;;;;;;;67.43;30.88;;;7.50;99.90;;;;;;4973242;28;20079;-40
2022/11/26 11:12:29;;;;;;;74.25;32.50;;;7.50;99.90;;;;;;4990373;28;20050;-40
2022/11/26 11:15:13;;;;;;;73.43;32.03;;;7.50;99.90;;;;;;4992747;28;20050;-40
2022/11/26 11:17:39;;;;;;;67.00;31.05;;;7.60;99.90;;;;;;4986049;28;20082;-40
2022/11/26 11:20:26;;;;;;;76.18;31.90;;;7.60;99.90;;;;;;4968004;28;20144;-40
2022/11/26 11:23:17;;;;;;;86.50;33.53;;;7.70;99.90;;;;;;4974502;28;20050;-39
2022/11/26 11:25:46;;;;;;;80.47;33.53;;;7.70;99.90;;;;;;4963997;28;20046;-37
2022/11/26 11:28:16;;;;;;;76.18;32.83;;;7.70;99.90;;;;;;4992727;28;20054;-40
2022/11/26 11:30:44;;;;;;;81.47;32.83;;;7.80;99.90;;;;;;4974047;28;20056;-39
2022/11/26 11:33:17;;;;;;;82.10;34.90;;;7.70;99.90;;;;;;4984164;28;20047;-39
2022/11/26 11:39:01;;;;;;;83.30;34.10;;;7.80;99.90;;;;;;4968915;28;20541;-40
2022/11/26 11:41:30;;;;;;;77.78;32.38;;;7.80;99.90;;;;;;4963514;28;20101;-39
2022/11/26 11:44:04;;;;;;;71.45;30.05;;;7.90;99.90;;;;;;4964263;28;20077;-39
2022/11/26 11:46:56;;;;;;;81.80;32.30;;;7.90;99.90;;;;;;4971859;28;20106;-40
2022/11/26 11:49:28;;;;;;;68.18;28.98;;;8.00;99.90;;;;;;4953925;28;20559;-37
2022/11/26 11:52:03;;;;;;;64.38;28.10;;;8.00;99.90;;;;;;4974536;28;20050;-39
2022/11/26 11:54:30;;;;;;;68.65;29.08;;;8.00;99.90;;;;;;4955108;28;20499;-39
2022/11/26 11:56:59;;;;;;;66.85;29.23;;;8.00;99.90;;;;;;4951648;28;20487;-39
2022/11/26 12:00:08;;;;;;;71.45;29.30;;;8.10;99.90;;;;;;4973868;28;20091;-39
2022/11/26 12:02:48;;;;;;;65.65;27.25;;;8.20;99.90;;;;;;4971322;28;20515;-39
2022/11/26 12:05:33;;;;;;;71.68;28.48;;;8.20;99.90;;;;;;4970790;28;20055;-40
2022/11/26 12:08:03;;;;;;;86.45;29.63;;;8.20;99.90;;;;;;4969171;28;20467;-39
2022/11/26 12:10:32;;;;;;;73.13;27.48;;;8.30;99.90;;;;;;4969522;28;20125;-38
2022/11/26 12:12:59;;;;;;;65.40;28.63;;;8.30;99.90;;;;;;4950337;28;20134;-39
2022/11/26 12:15:28;;;;;;;89.57;41.67;;;8.40;99.90;;;;;;4967496;28;20450;-40
2022/11/26 12:17:59;;;;;;;95.88;44.70;;;8.40;99.90;;;;;;4968125;28;20471;-39
2022/11/26 12:20:29;;;;;;;71.85;29.50;;;8.40;99.90;;;;;;4971873;28;20098;-40
2022/11/26 12:22:59;;;;;;;74.43;29.52;;;8.40;99.90;;;;;;4973112;28;20083;-39
2022/11/26 12:25:29;;;;;;;59.83;25.35;;;8.50;99.90;;;;;;4969048;28;20082;-39
2022/11/26 12:27:59;;;;;;;70.10;27.23;;;8.50;99.90;;;;;;4972641;28;20046;-40
2022/11/26 12:30:28;;;;;;;65.03;25.88;;;8.50;99.90;;;;;;4952041;28;20522;-39
2022/11/26 12:32:59;;;;;;;62.25;24.80;;;8.50;99.90;;;;;;4970110;28;20499;-39
2022/11/26 12:35:29;;;;;;;64.85;24.55;;;8.50;99.90;;;;;;4956408;28;20145;-40
2022/11/26 12:37:58;;;;;;;84.32;27.25;;;8.60;99.90;;;;;;4966937;28;20098;-40
2022/11/26 12:40:31;;;;;;;60.50;23.48;;;8.60;99.90;;;;;;4972659;28;20051;-39
2022/11/26 12:42:59;;;;;;;58.22;23.00;;;8.60;99.90;;;;;;4954644;28;20051;-39
2022/11/26 12:45:44;;;;;;;56.78;22.20;;;8.60;99.90;;;;;;4954742;28;20142;-38
2022/11/26 12:48:18;;;;;;;57.17;23.58;;;8.60;99.90;;;;;;4967240;28;20122;-40
2022/11/26 12:50:48;;;;;;;54.30;21.70;;;8.70;99.90;;;;;;4953778;29;20135;-39